Time;durP1;ratioP1;P1;durP2;ratioP2;P2;SDS_P1;SDS_P2;PMS_P1;PMS_P2;Temp;Humidity;BMP_temperature;BMP_pressure;BME280_temperature;BME280_humidity;BME280_pressure;Samples;Min_cycle;Max_cycle;Signal;HPM_P1;HPM_P2
2023/10/02 00:01:21;;;;;;;0.20;0.20;;;;;;;;;;5132270;28;20142;-52
2023/10/02 00:03:48;;;;;;;0.20;0.20;;;;;;;;;;5131896;28;20524;-51
2023/10/02 00:06:17;;;;;;;0.10;0.10;;;;;;;;;;5132090;28;20058;-51
2023/10/02 00:08:48;;;;;;;0.10;0.10;;;;;;;;;;5132318;28;20047;-50
2023/10/02 00:11:47;;;;;;;0.10;0.10;;;;;;;;;;5132191;28;20047;-52
2023/10/02 00:14:18;;;;;;;0.10;0.10;;;;;;;;;;5117120;28;20536;-51
2023/10/02 00:16:58;;;;;;;0.10;0.10;;;;;;;;;;5132561;28;20253;-51
2023/10/02 00:19:27;;;;;;;0.10;0.10;;;;;;;;;;5131540;28;20051;-52
2023/10/02 00:21:57;;;;;;;0.10;0.10;;;;;;;;;;5131494;27;20384;-51
2023/10/02 00:24:24;;;;;;;0.10;0.10;;;;;;;;;;5132336;28;20051;-51
2023/10/02 00:26:51;;;;;;;0.13;0.13;;;;;;;;;;5132087;28;20483;-51
2023/10/02 00:29:17;;;;;;;0.10;0.10;;;;;;;;;;5131991;28;20039;-50
2023/10/02 00:31:46;;;;;;;0.10;0.10;;;;;;;;;;5131804;28;20475;-51
2023/10/02 00:34:13;;;;;;;0.10;0.10;;;;;;;;;;5131790;28;20051;-51
2023/10/02 00:36:39;;;;;;;0.10;0.10;;;;;;;;;;5132271;28;20081;-50
2023/10/02 00:39:36;;;;;;;0.10;0.10;;;;;;;;;;5131534;27;20055;-51
2023/10/02 00:45:08;;;;;;;0.10;0.10;;;;;;;;;;5116589;28;20044;-50
2023/10/02 00:47:42;;;;;;;0.10;0.10;;;;;;;;;;5122618;28;20043;-52
2023/10/02 00:50:10;;;;;;;0.10;0.10;;;;;;;;;;5131155;28;20503;-50
2023/10/02 00:52:37;;;;;;;0.10;0.10;;;;;;;;;;5130806;28;20051;-52
2023/10/02 00:55:06;;;;;;;0.10;0.10;;;;;;;;;;5130857;28;20039;-48
2023/10/02 00:57:35;;;;;;;0.10;0.10;;;;;;;;;;5130761;28;20070;-51
2023/10/02 01:00:06;;;;;;;0.10;0.10;;;;;;;;;;5130253;28;20099;-51
2023/10/02 01:02:33;;;;;;;0.10;0.10;;;;;;;;;;5130646;28;20078;-51
2023/10/02 01:05:00;;;;;;;0.10;0.10;;;;;;;;;;5130589;28;20434;-50
2023/10/02 01:07:25;;;;;;;0.10;0.10;;;;;;;;;;5130676;28;20043;-51
2023/10/02 01:10:07;;;;;;;0.10;0.10;;;;;;;;;;5130365;28;20054;-51
2023/10/02 01:13:05;;;;;;;0.10;0.10;;;;;;;;;;5130241;28;20051;-51
2023/10/02 01:15:20;;;;;;;0.10;0.10;;;;;;;;;;5115297;28;20047;-52
2023/10/02 01:18:21;;;;;;;0.10;0.10;;;;;;;;;;5130121;28;20564;-51
2023/10/02 01:20:48;;;;;;;0.10;0.10;;;;;;;;;;5115043;28;20047;-52
2023/10/02 01:23:16;;;;;;;0.10;0.10;;;;;;;;;;5130417;28;20047;-52
2023/10/02 01:25:45;;;;;;;0.10;0.10;;;;;;;;;;5130514;28;20047;-51
2023/10/02 01:28:13;;;;;;;;;;;;;;;;;;5131016;28;20078;-51
2023/10/02 01:30:40;;;;;;;0.10;0.10;;;;;;;;;;5131402;28;20139;-51
2023/10/02 01:33:12;;;;;;;0.10;0.10;;;;;;;;;;5131371;27;20419;-52
2023/10/02 01:35:46;;;;;;;0.10;0.10;;;;;;;;;;5131514;28;20059;-51
2023/10/02 01:38:12;;;;;;;0.10;0.10;;;;;;;;;;5130580;28;20043;-51
2023/10/02 01:40:40;;;;;;;0.10;0.10;;;;;;;;;;5131129;28;20078;-51
2023/10/02 01:43:13;;;;;;;0.15;0.15;;;;;;;;;;5131152;27;20047;-52
2023/10/02 01:45:44;;;;;;;0.13;0.13;;;;;;;;;;5130923;27;20054;-50
2023/10/02 01:48:12;;;;;;;0.10;0.10;;;;;;;;;;5129549;27;20047;-50
2023/10/02 01:50:37;;;;;;;;;;;;;;;;;;5131795;28;20475;-52
2023/10/02 01:53:07;;;;;;;0.10;0.10;;;;;;;;;;5131279;28;20010;-52
2023/10/02 01:55:35;;;;;;;0.10;0.10;;;;;;;;;;5131576;28;20174;-51
2023/10/02 01:58:16;;;;;;;0.10;0.10;;;;;;;;;;5130102;28;20460;-51
2023/10/02 02:00:42;;;;;;;0.10;0.10;;;;;;;;;;5130592;28;20051;-50
2023/10/02 02:03:15;;;;;;;0.10;0.10;;;;;;;;;;5130983;28;20043;-50
2023/10/02 02:05:44;;;;;;;0.10;0.10;;;;;;;;;;5131047;28;20483;-50
2023/10/02 02:08:21;;;;;;;0.10;0.10;;;;;;;;;;5130442;28;20494;-51
2023/10/02 02:10:48;;;;;;;0.10;0.10;;;;;;;;;;5129898;28;20070;-51
2023/10/02 02:13:14;;;;;;;0.10;0.10;;;;;;;;;;5130084;28;20142;-52
2023/10/02 02:15:47;;;;;;;0.10;0.10;;;;;;;;;;5130332;28;20055;-50
2023/10/02 02:18:14;;;;;;;0.10;0.10;;;;;;;;;;5128898;28;20039;-52
2023/10/02 02:21:11;;;;;;;0.10;0.10;;;;;;;;;;5129696;28;20134;-50
2023/10/02 02:23:27;;;;;;;0.10;0.10;;;;;;;;;;5114627;28;20062;-51
2023/10/02 02:25:53;;;;;;;0.10;0.10;;;;;;;;;;5129990;28;20047;-51
2023/10/02 02:28:18;;;;;;;0.10;0.10;;;;;;;;;;5129661;28;20053;-51
2023/10/02 02:30:44;;;;;;;0.10;0.10;;;;;;;;;;5130014;28;20100;-51
2023/10/02 02:33:12;;;;;;;0.10;0.10;;;;;;;;;;5129628;28;20047;-51
2023/10/02 02:35:39;;;;;;;0.10;0.10;;;;;;;;;;5130263;28;20050;-52
2023/10/02 02:38:13;;;;;;;0.10;0.10;;;;;;;;;;5129618;28;20051;-51
2023/10/02 02:40:40;;;;;;;0.10;0.10;;;;;;;;;;5128021;28;20057;-50
2023/10/02 02:43:13;;;;;;;0.10;0.10;;;;;;;;;;5128836;27;20058;-51
2023/10/02 02:45:38;;;;;;;0.10;0.10;;;;;;;;;;5127121;27;20078;-51
2023/10/02 02:48:07;;;;;;;0.10;0.10;;;;;;;;;;5126770;27;20590;-50
2023/10/02 02:50:34;;;;;;;0.10;0.10;;;;;;;;;;5132290;27;20305;-49
2023/10/02 02:53:32;;;;;;;0.10;0.10;;;;;;;;;;5133186;28;20407;-50
2023/10/02 02:55:45;;;;;;;0.13;0.13;;;;;;;;;;5118187;28;20050;-51
2023/10/02 02:58:11;;;;;;;0.10;0.10;;;;;;;;;;5133051;28;20043;-50
2023/10/02 03:00:39;;;;;;;0.10;0.10;;;;;;;;;;5133260;28;20051;-50
2023/10/02 03:03:29;;;;;;;0.10;0.10;;;;;;;;;;5133716;28;20142;-51
2023/10/02 03:05:52;;;;;;;0.10;0.10;;;;;;;;;;5118148;28;20096;-51
2023/10/02 03:08:19;;;;;;;0.20;0.20;;;;;;;;;;5132991;28;20051;-50
2023/10/02 03:10:46;;;;;;;0.10;0.10;;;;;;;;;;5132860;28;20050;-51
2023/10/02 03:13:19;;;;;;;0.20;0.20;;;;;;;;;;5132925;28;20423;-51
2023/10/02 03:15:45;;;;;;;0.10;0.10;;;;;;;;;;5133146;28;20043;-50
2023/10/02 03:20:59;;;;;;;0.10;0.10;;;;;;;;;;5117440;28;20059;-52
2023/10/02 03:23:30;;;;;;;0.13;0.13;;;;;;;;;;5132868;28;20287;-51
2023/10/02 03:25:56;;;;;;;0.10;0.10;;;;;;;;;;5133114;28;20075;-51
2023/10/02 03:28:32;;;;;;;0.10;0.10;;;;;;;;;;5132728;28;20058;-52
2023/10/02 03:30:58;;;;;;;0.10;0.10;;;;;;;;;;5132813;28;20048;-52
2023/10/02 03:33:25;;;;;;;0.10;0.10;;;;;;;;;;5132748;28;20051;-51
2023/10/02 03:36:08;;;;;;;0.10;0.10;;;;;;;;;;5133106;28;20099;-50
2023/10/02 03:38:35;;;;;;;0.10;0.10;;;;;;;;;;5132365;28;20078;-50
2023/10/02 03:41:01;;;;;;;0.10;0.10;;;;;;;;;;5132045;28;20050;-51
2023/10/02 03:43:35;;;;;;;0.15;0.15;;;;;;;;;;5132610;27;20491;-51
2023/10/02 03:46:04;;;;;;;0.10;0.10;;;;;;;;;;5137311;27;20038;-52
2023/10/02 03:48:29;;;;;;;0.20;0.20;;;;;;;;;;5143514;27;20411;-51
2023/10/02 03:50:56;;;;;;;0.20;0.20;;;;;;;;;;5131985;28;20047;-51
2023/10/02 03:53:29;;;;;;;0.10;0.10;;;;;;;;;;5131964;28;20051;-51
2023/10/02 03:55:59;;;;;;;0.20;0.20;;;;;;;;;;5132440;27;20502;-51
2023/10/02 03:58:38;;;;;;;0.10;0.10;;;;;;;;;;5131891;27;20051;-51
2023/10/02 04:01:08;;;;;;;0.10;0.10;;;;;;;;;;5132242;28;20051;-50
2023/10/02 04:03:52;;;;;;;0.10;0.10;;;;;;;;;;5132805;28;20047;-52
2023/10/02 04:06:33;;;;;;;0.10;0.10;;;;;;;;;;5132399;28;20544;-51
2023/10/02 04:09:21;;;;;;;0.10;0.10;;;;;;;;;;5131798;28;20051;-52
2023/10/02 04:11:46;;;;;;;0.10;0.10;;;;;;;;;;5116296;28;20380;-52
2023/10/02 04:14:19;;;;;;;0.10;0.10;;;;;;;;;;5131327;28;20067;-51
2023/10/02 04:19:23;;;;;;;0.10;0.10;;;;;;;;;;5188637;27;20545;-51
2023/10/02 04:21:53;;;;;;;0.10;0.10;;;;;;;;;;5168211;27;20483;-50
2023/10/02 04:24:23;;;;;;;0.10;0.10;;;;;;;;;;5168528;27;20083;-51
2023/10/02 04:26:54;;;;;;;0.10;0.10;;;;;;;;;;5169175;27;20046;-50
2023/10/02 04:29:28;;;;;;;0.10;0.10;;;;;;;;;;5168036;27;20095;-50
2023/10/02 04:32:25;;;;;;;0.10;0.10;;;;;;;;;;5168525;27;20106;-51
2023/10/02 04:34:56;;;;;;;0.10;0.10;;;;;;;;;;5153323;27;20038;-50
2023/10/02 04:37:22;;;;;;;0.10;0.10;;;;;;;;;;5168802;27;20175;-51
2023/10/02 04:42:57;;;;;;;0.10;0.10;;;;;;;;;;5178121;27;20153;-51
2023/10/02 04:45:26;;;;;;;0.10;0.10;;;;;;;;;;5146241;27;20050;-51
2023/10/02 04:47:58;;;;;;;0.10;0.10;;;;;;;;;;5151356;27;20046;-50
2023/10/02 04:53:17;;;;;;;;;;;;;;;;;;5167991;27;20406;-52
2023/10/02 04:55:44;;;;;;;0.10;0.10;;;;;;;;;;5167065;27;19926;-51
2023/10/02 04:58:14;;;;;;;0.10;0.10;;;;;;;;;;5162360;27;20137;-52
2023/10/02 05:01:18;;;;;;;0.10;0.10;;;;;;;;;;5147428;27;20043;-51
2023/10/02 05:03:27;;;;;;;0.10;0.10;;;;;;;;;;5132711;27;20047;-51
2023/10/02 05:05:54;;;;;;;0.10;0.10;;;;;;;;;;5147965;27;20074;-51
2023/10/02 05:08:22;;;;;;;0.10;0.10;;;;;;;;;;5147535;27;20054;-50
2023/10/02 05:10:49;;;;;;;0.10;0.10;;;;;;;;;;5148230;27;20082;-52
2023/10/02 05:13:44;;;;;;;0.10;0.10;;;;;;;;;;5147317;27;20054;-51
2023/10/02 05:16:12;;;;;;;0.10;0.10;;;;;;;;;;5132421;27;20055;-50
2023/10/02 05:18:44;;;;;;;0.10;0.10;;;;;;;;;;5147032;27;20047;-51
2023/10/02 05:21:10;;;;;;;0.10;0.10;;;;;;;;;;5146735;27;20058;-50
2023/10/02 05:23:36;;;;;;;0.22;0.20;;;;;;;;;;5147872;27;20099;-51
2023/10/02 05:26:02;;;;;;;0.10;0.10;;;;;;;;;;5147724;27;20051;-50
2023/10/02 05:28:42;;;;;;;0.10;0.10;;;;;;;;;;5147282;27;20130;-51
2023/10/02 05:31:08;;;;;;;0.10;0.10;;;;;;;;;;5147728;27;20039;-51
2023/10/02 05:33:37;;;;;;;0.10;0.10;;;;;;;;;;5146846;27;20051;-51
2023/10/02 05:36:04;;;;;;;0.10;0.10;;;;;;;;;;5147307;27;20043;-50
2023/10/02 05:38:33;;;;;;;0.10;0.10;;;;;;;;;;5146856;27;20089;-50
2023/10/02 05:40:59;;;;;;;0.10;0.10;;;;;;;;;;5146871;27;20524;-50
2023/10/02 05:43:24;;;;;;;0.20;0.20;;;;;;;;;;5146891;27;20494;-51
2023/10/02 05:45:53;;;;;;;0.10;0.10;;;;;;;;;;5167214;27;20046;-51
2023/10/02 05:51:09;;;;;;;0.20;0.15;;;;;;;;;;5190285;27;20149;-49
2023/10/02 05:53:34;;;;;;;0.10;0.10;;;;;;;;;;5150396;27;20414;-51
2023/10/02 05:56:15;;;;;;;0.10;0.10;;;;;;;;;;5168286;27;20369;-51
2023/10/02 05:58:41;;;;;;;0.38;0.30;;;;;;;;;;5168437;27;20410;-51
2023/10/02 06:01:46;;;;;;;0.10;0.10;;;;;;;;;;5168768;27;20059;-51
2023/10/02 06:03:56;;;;;;;0.10;0.10;;;;;;;;;;5153570;27;20078;-51
2023/10/02 06:06:23;;;;;;;0.10;0.10;;;;;;;;;;5169470;27;20578;-51
2023/10/02 06:08:51;;;;;;;0.10;0.10;;;;;;;;;;5168568;27;20402;-51
2023/10/02 06:11:33;;;;;;;0.10;0.10;;;;;;;;;;5169053;27;20057;-52
2023/10/02 06:14:14;;;;;;;0.10;0.10;;;;;;;;;;5167980;27;20069;-51
2023/10/02 06:16:41;;;;;;;0.10;0.10;;;;;;;;;;5168692;27;20046;-50
2023/10/02 06:19:13;;;;;;;0.10;0.10;;;;;;;;;;5167363;27;20072;-50
2023/10/02 06:21:46;;;;;;;0.10;0.10;;;;;;;;;;5167615;27;20483;-50
2023/10/02 06:24:13;;;;;;;0.10;0.10;;;;;;;;;;5168481;27;20145;-51
2023/10/02 06:29:28;;;;;;;0.10;0.10;;;;;;;;;;5152521;27;20046;-51
2023/10/02 06:32:11;;;;;;;0.10;0.10;;;;;;;;;;5168586;27;20133;-52
2023/10/02 06:34:39;;;;;;;0.10;0.10;;;;;;;;;;5168241;27;20046;-51
2023/10/02 06:37:08;;;;;;;0.10;0.10;;;;;;;;;;5168536;27;20057;-52
2023/10/02 06:39:36;;;;;;;0.10;0.10;;;;;;;;;;5168170;27;20053;-51
2023/10/02 06:42:04;;;;;;;0.20;0.20;;;;;;;;;;5160816;27;20121;-51
2023/10/02 06:44:34;;;;;;;;;;;;;;;;;;5136572;27;20322;-51
2023/10/02 06:46:59;;;;;;;0.10;0.10;;;;;;;;;;5154197;27;19923;-51
2023/10/02 06:49:25;;;;;;;0.10;0.10;;;;;;;;;;5146704;27;20098;-51
2023/10/02 06:51:51;;;;;;;0.20;0.20;;;;;;;;;;5147531;27;20507;-49
2023/10/02 06:54:18;;;;;;;0.40;0.40;;;;;;;;;;5147163;27;20039;-50
2023/10/02 06:56:44;;;;;;;0.20;0.20;;;;;;;;;;5146571;27;20096;-51
2023/10/02 06:59:09;;;;;;;0.10;0.10;;;;;;;;;;5146571;27;20072;-51
2023/10/02 07:01:35;;;;;;;0.10;0.10;;;;;;;;;;5137659;27;20047;-51
2023/10/02 07:04:09;;;;;;;0.10;0.10;;;;;;;;;;5132613;28;20051;-51
2023/10/02 07:06:38;;;;;;;0.10;0.10;;;;;;;;;;5132529;28;20051;-51
2023/10/02 07:09:11;;;;;;;0.10;0.10;;;;;;;;;;5132128;28;20046;-51
2023/10/02 07:11:39;;;;;;;0.10;0.10;;;;;;;;;;5132626;28;20053;-50
2023/10/02 07:14:06;;;;;;;0.13;0.13;;;;;;;;;;5132047;28;20415;-51
2023/10/02 07:16:32;;;;;;;0.13;0.13;;;;;;;;;;5132199;28;20051;-50
2023/10/02 07:18:59;;;;;;;0.10;0.10;;;;;;;;;;5131295;28;20641;-50
2023/10/02 07:21:27;;;;;;;0.10;0.10;;;;;;;;;;5132094;28;20544;-51
2023/10/02 07:23:53;;;;;;;0.10;0.10;;;;;;;;;;5132317;28;20047;-52
2023/10/02 07:26:19;;;;;;;0.43;0.20;;;;;;;;;;5132741;28;20407;-51
2023/10/02 07:28:50;;;;;;;0.10;0.10;;;;;;;;;;5132248;28;20054;-52
2023/10/02 07:31:17;;;;;;;0.15;0.15;;;;;;;;;;5132236;28;20047;-51
2023/10/02 07:33:44;;;;;;;0.10;0.10;;;;;;;;;;5132124;28;20436;-51
2023/10/02 07:36:14;;;;;;;0.10;0.10;;;;;;;;;;5132319;28;20054;-51
2023/10/02 07:38:42;;;;;;;0.10;0.10;;;;;;;;;;5131937;28;20089;-52
2023/10/02 07:41:14;;;;;;;0.20;0.20;;;;;;;;;;5131526;28;20058;-50
2023/10/02 07:43:42;;;;;;;0.10;0.10;;;;;;;;;;5125242;27;20051;-52
2023/10/02 07:46:14;;;;;;;0.10;0.10;;;;;;;;;;5138812;27;20175;-51
2023/10/02 07:48:41;;;;;;;0.10;0.10;;;;;;;;;;5131352;28;20054;-51
2023/10/02 07:51:09;;;;;;;0.10;0.10;;;;;;;;;;5132393;28;20092;-52
2023/10/02 07:53:43;;;;;;;0.10;0.10;;;;;;;;;;5132216;28;20047;-50
2023/10/02 07:56:11;;;;;;;0.10;0.10;;;;;;;;;;5132499;28;20055;-51
2023/10/02 07:58:36;;;;;;;;;;;;;;;;;;5130695;28;20043;-51
2023/10/02 08:01:21;;;;;;;0.10;0.10;;;;;;;;;;5132110;28;20047;-51
2023/10/02 08:03:49;;;;;;;0.10;0.10;;;;;;;;;;5132806;27;20058;-50
2023/10/02 08:06:48;;;;;;;0.10;0.10;;;;;;;;;;5132477;27;20047;-49
2023/10/02 08:11:50;;;;;;;0.10;0.10;;;;;;;;;;5110832;28;20048;-51
2023/10/02 08:14:48;;;;;;;0.10;0.10;;;;;;;;;;5110744;28;20085;-48
2023/10/02 08:17:17;;;;;;;0.10;0.10;;;;;;;;;;5125209;28;20514;-51
2023/10/02 08:19:54;;;;;;;0.10;0.10;;;;;;;;;;5111221;28;20100;-51
2023/10/02 08:22:20;;;;;;;0.10;0.10;;;;;;;;;;5111799;28;20047;-52
2023/10/02 08:24:46;;;;;;;0.55;0.30;;;;;;;;;;5111283;28;20044;-52
2023/10/02 08:27:14;;;;;;;0.10;0.10;;;;;;;;;;5111633;28;20415;-51
2023/10/02 08:29:41;;;;;;;;;;;;;;;;;;5111295;28;20059;-50
2023/10/02 08:32:07;;;;;;;0.10;0.10;;;;;;;;;;5111641;28;19926;-50
2023/10/02 08:34:32;;;;;;;0.10;0.10;;;;;;;;;;5111409;28;20055;-53
2023/10/02 08:37:07;;;;;;;0.10;0.10;;;;;;;;;;5111917;28;20081;-50
2023/10/02 08:39:34;;;;;;;0.10;0.10;;;;;;;;;;5111066;28;20043;-52
2023/10/02 08:42:08;;;;;;;0.15;0.15;;;;;;;;;;5112048;28;20480;-52
2023/10/02 08:44:37;;;;;;;0.10;0.10;;;;;;;;;;5111242;27;20052;-52
2023/10/02 08:47:07;;;;;;;0.10;0.10;;;;;;;;;;5094467;28;20453;-51
2023/10/02 08:49:34;;;;;;;0.10;0.10;;;;;;;;;;5129114;28;20150;-50
2023/10/02 08:52:03;;;;;;;0.10;0.10;;;;;;;;;;5132555;27;20066;-50
2023/10/02 08:54:31;;;;;;;0.20;0.20;;;;;;;;;;5130680;28;20051;-50
2023/10/02 08:57:08;;;;;;;0.10;0.10;;;;;;;;;;5131945;27;20185;-49
2023/10/02 08:59:38;;;;;;;0.10;0.10;;;;;;;;;;5121207;27;20051;-50
2023/10/02 09:02:07;;;;;;;0.10;0.10;;;;;;;;;;5131571;27;20047;-51
2023/10/02 09:04:33;;;;;;;0.10;0.10;;;;;;;;;;5131768;28;20395;-51
2023/10/02 09:06:59;;;;;;;0.10;0.10;;;;;;;;;;5131624;27;20397;-51
2023/10/02 09:09:27;;;;;;;0.10;0.10;;;;;;;;;;5099686;28;20562;-49
2023/10/02 09:11:57;;;;;;;0.10;0.10;;;;;;;;;;5111217;28;20097;-49
2023/10/02 09:14:39;;;;;;;0.10;0.10;;;;;;;;;;5110939;28;20047;-51
2023/10/02 09:17:20;;;;;;;0.10;0.10;;;;;;;;;;5111081;28;20142;-52
2023/10/02 09:20:03;;;;;;;0.10;0.10;;;;;;;;;;5110242;28;20055;-51
2023/10/02 09:22:34;;;;;;;0.10;0.10;;;;;;;;;;5110777;28;20475;-51
2023/10/02 09:25:09;;;;;;;0.10;0.10;;;;;;;;;;5110724;28;20047;-51
2023/10/02 09:27:38;;;;;;;0.10;0.10;;;;;;;;;;5110244;28;20043;-51
2023/10/02 09:30:21;;;;;;;0.10;0.10;;;;;;;;;;5109763;28;20463;-51
2023/10/02 09:32:49;;;;;;;0.10;0.10;;;;;;;;;;5110405;28;20407;-51
2023/10/02 09:35:22;;;;;;;0.10;0.10;;;;;;;;;;5110836;28;20507;-50
2023/10/02 09:38:10;;;;;;;0.10;0.10;;;;;;;;;;5095111;28;20055;-52
2023/10/02 09:43:23;;;;;;;0.20;0.20;;;;;;;;;;5118979;27;19989;-52
2023/10/02 09:45:53;;;;;;;0.10;0.10;;;;;;;;;;5151829;27;20042;-52
2023/10/02 09:48:56;;;;;;;0.10;0.10;;;;;;;;;;5136007;27;20048;-52
2023/10/02 09:51:10;;;;;;;0.10;0.10;;;;;;;;;;5106612;28;20054;-51
2023/10/02 09:53:38;;;;;;;0.10;0.10;;;;;;;;;;5130622;27;20054;-52
2023/10/02 09:56:09;;;;;;;0.15;0.15;;;;;;;;;;5129722;27;20051;-51
2023/10/02 09:58:46;;;;;;;0.10;0.10;;;;;;;;;;5127460;27;20079;-52
2023/10/02 10:03:57;;;;;;;0.10;0.10;;;;;;;;;;5129711;28;20099;-51
2023/10/02 10:06:41;;;;;;;0.10;0.10;;;;;;;;;;5129554;27;20043;-52
2023/10/02 10:14:36;;;;;;;0.10;0.10;;;;;;;;;;5189017;27;20738;-51
2023/10/02 10:17:12;;;;;;;0.20;0.20;;;;;;;;;;5168910;27;20046;-49
2023/10/02 10:19:41;;;;;;;0.20;0.20;;;;;;;;;;5167964;27;20057;-51
2023/10/02 10:22:26;;;;;;;0.10;0.10;;;;;;;;;;5168530;27;20053;-52
2023/10/02 10:30:46;;;;;;;0.10;0.10;;;;;;;;;;5189635;27;20141;-51
2023/10/02 10:33:16;;;;;;;0.10;0.10;;;;;;;;;;5168619;27;20085;-51
2023/10/02 10:35:51;;;;;;;0.10;0.10;;;;;;;;;;5168491;27;20042;-51
2023/10/02 10:38:34;;;;;;;0.10;0.10;;;;;;;;;;5168683;27;20054;-52
2023/10/02 10:41:01;;;;;;;0.10;0.10;;;;;;;;;;5165116;27;20099;-52
2023/10/02 10:44:19;;;;;;;0.10;0.10;;;;;;;;;;5153715;27;20049;-52
2023/10/02 10:46:19;;;;;;;0.10;0.10;;;;;;;;;;5153360;27;20047;-52
2023/10/02 10:48:48;;;;;;;0.10;0.10;;;;;;;;;;5152107;27;20551;-51
2023/10/02 10:51:21;;;;;;;0.13;0.13;;;;;;;;;;5146868;27;20498;-51
2023/10/02 10:53:52;;;;;;;0.10;0.10;;;;;;;;;;5146977;27;20047;-51
2023/10/02 10:56:18;;;;;;;0.10;0.10;;;;;;;;;;5147542;27;20411;-52
2023/10/02 10:58:45;;;;;;;0.10;0.10;;;;;;;;;;5145334;27;20563;-51
2023/10/02 11:01:16;;;;;;;0.10;0.10;;;;;;;;;;5146483;27;20066;-52
2023/10/02 11:03:43;;;;;;;0.10;0.10;;;;;;;;;;5147954;27;20054;-51
2023/10/02 11:06:10;;;;;;;0.10;0.10;;;;;;;;;;5147691;27;20049;-51
2023/10/02 11:08:37;;;;;;;0.10;0.10;;;;;;;;;;5144766;27;20070;-51
2023/10/02 11:11:06;;;;;;;0.10;0.10;;;;;;;;;;5146742;27;20046;-51
2023/10/02 11:13:50;;;;;;;0.10;0.10;;;;;;;;;;5147432;27;20058;-52
2023/10/02 11:16:30;;;;;;;0.10;0.10;;;;;;;;;;5147797;27;20043;-52
2023/10/02 11:19:10;;;;;;;0.10;0.10;;;;;;;;;;5146837;27;20047;-51
2023/10/02 11:21:45;;;;;;;0.10;0.10;;;;;;;;;;5146825;27;20440;-51
2023/10/02 11:24:20;;;;;;;0.10;0.10;;;;;;;;;;5147952;27;20046;-52
2023/10/02 11:26:45;;;;;;;0.10;0.10;;;;;;;;;;5147584;27;20062;-51
2023/10/02 11:29:20;;;;;;;0.10;0.10;;;;;;;;;;5131838;27;20471;-51
2023/10/02 11:32:40;;;;;;;0.10;0.10;;;;;;;;;;5126379;28;20495;-51
2023/10/02 11:34:48;;;;;;;0.10;0.10;;;;;;;;;;5111592;28;20039;-52
2023/10/02 11:37:15;;;;;;;0.10;0.10;;;;;;;;;;5126973;28;20131;-51
2023/10/02 11:39:40;;;;;;;0.10;0.10;;;;;;;;;;5123567;27;20105;-51
2023/10/02 11:42:07;;;;;;;0.10;0.10;;;;;;;;;;5130873;27;20125;-52
2023/10/02 11:44:32;;;;;;;0.10;0.10;;;;;;;;;;5135954;27;20047;-51
2023/10/02 11:46:59;;;;;;;0.10;0.10;;;;;;;;;;5133650;28;20043;-50
2023/10/02 11:49:29;;;;;;;0.10;0.10;;;;;;;;;;5132733;27;20051;-51
2023/10/02 11:52:03;;;;;;;0.10;0.10;;;;;;;;;;5133185;27;20079;-51
2023/10/02 11:54:30;;;;;;;0.10;0.10;;;;;;;;;;5133381;28;20047;-52
2023/10/02 11:56:57;;;;;;;0.10;0.10;;;;;;;;;;5133308;28;20058;-50
2023/10/02 11:59:23;;;;;;;0.20;0.20;;;;;;;;;;5132262;28;20051;-51
2023/10/02 12:01:48;;;;;;;0.30;0.30;;;;;;;;;;5132546;28;20051;-52
2023/10/02 12:04:14;;;;;;;0.10;0.10;;;;;;;;;;5132547;28;20656;-51
2023/10/02 12:06:40;;;;;;;0.10;0.10;;;;;;;;;;5133058;28;20107;-50
2023/10/02 12:09:06;;;;;;;0.10;0.10;;;;;;;;;;5132227;28;20408;-51
2023/10/02 12:11:33;;;;;;;0.13;0.13;;;;;;;;;;5131777;28;20054;-52
2023/10/02 12:13:59;;;;;;;0.10;0.10;;;;;;;;;;5131820;28;20040;-51
2023/10/02 12:16:26;;;;;;;0.10;0.10;;;;;;;;;;5132267;28;20093;-52
2023/10/02 12:18:52;;;;;;;0.10;0.10;;;;;;;;;;5131520;28;20054;-51
2023/10/02 12:21:19;;;;;;;0.10;0.10;;;;;;;;;;5131096;28;20047;-51
2023/10/02 12:23:46;;;;;;;0.10;0.10;;;;;;;;;;5132362;27;20062;-52
2023/10/02 12:26:14;;;;;;;0.10;0.10;;;;;;;;;;5132373;28;20047;-52
2023/10/02 12:28:40;;;;;;;;;;;;;;;;;;5132213;28;20407;-50
2023/10/02 12:31:06;;;;;;;0.10;0.10;;;;;;;;;;5132115;28;20394;-51
2023/10/02 12:33:35;;;;;;;0.20;0.20;;;;;;;;;;5131693;27;20407;-51
2023/10/02 12:36:00;;;;;;;0.10;0.10;;;;;;;;;;5132653;27;20051;-51
2023/10/02 12:38:26;;;;;;;0.10;0.10;;;;;;;;;;5131861;28;20159;-50
2023/10/02 12:40:51;;;;;;;0.10;0.10;;;;;;;;;;5121896;27;20051;-49
2023/10/02 12:43:17;;;;;;;0.10;0.10;;;;;;;;;;5138299;27;20410;-52
2023/10/02 12:45:43;;;;;;;0.10;0.10;;;;;;;;;;5152737;27;20050;-52
2023/10/02 12:48:09;;;;;;;0.10;0.10;;;;;;;;;;5140147;27;20473;-51
2023/10/02 12:50:38;;;;;;;0.10;0.10;;;;;;;;;;5111860;28;20058;-51
2023/10/02 12:53:04;;;;;;;0.10;0.10;;;;;;;;;;5111004;28;20047;-52
2023/10/02 12:55:32;;;;;;;0.10;0.10;;;;;;;;;;5112322;28;20487;-52
2023/10/02 12:57:58;;;;;;;0.20;0.20;;;;;;;;;;5111798;28;20043;-51
2023/10/02 13:00:24;;;;;;;0.10;0.10;;;;;;;;;;5112170;28;20674;-51
2023/10/02 13:02:49;;;;;;;0.10;0.10;;;;;;;;;;5112188;28;20268;-50
2023/10/02 13:05:15;;;;;;;0.10;0.10;;;;;;;;;;5112334;28;20556;-51
2023/10/02 13:07:42;;;;;;;0.17;0.15;;;;;;;;;;5111803;28;20049;-51
2023/10/02 13:10:08;;;;;;;0.10;0.10;;;;;;;;;;5111973;28;20499;-51
2023/10/02 13:12:34;;;;;;;0.38;0.30;;;;;;;;;;5111352;28;20044;-51
2023/10/02 13:14:59;;;;;;;0.10;0.10;;;;;;;;;;5128095;28;20055;-51
2023/10/02 13:17:25;;;;;;;0.10;0.10;;;;;;;;;;5132535;28;20055;-51
2023/10/02 13:19:51;;;;;;;0.10;0.10;;;;;;;;;;5131089;28;20514;-51
2023/10/02 13:22:17;;;;;;;0.10;0.10;;;;;;;;;;5131279;28;20047;-50
2023/10/02 13:24:42;;;;;;;0.10;0.10;;;;;;;;;;5131537;28;20047;-50
2023/10/02 13:27:09;;;;;;;0.10;0.10;;;;;;;;;;5132153;27;20043;-49
2023/10/02 13:29:34;;;;;;;0.20;0.20;;;;;;;;;;5113619;27;20066;-51
2023/10/02 13:32:01;;;;;;;0.10;0.10;;;;;;;;;;5111595;28;20479;-51
2023/10/02 13:34:27;;;;;;;0.10;0.10;;;;;;;;;;5111483;28;20051;-50
2023/10/02 13:36:52;;;;;;;0.10;0.10;;;;;;;;;;5111845;28;20051;-51
2023/10/02 13:39:19;;;;;;;0.15;0.15;;;;;;;;;;5110998;28;20396;-50
2023/10/02 13:41:45;;;;;;;0.10;0.10;;;;;;;;;;5129377;27;20501;-51
2023/10/02 13:44:11;;;;;;;0.10;0.10;;;;;;;;;;5146756;27;20054;-51
2023/10/02 13:46:40;;;;;;;0.10;0.10;;;;;;;;;;5152542;27;20050;-50
2023/10/02 13:49:06;;;;;;;0.10;0.10;;;;;;;;;;5123648;27;20079;-51
2023/10/02 13:51:32;;;;;;;0.10;0.10;;;;;;;;;;5110857;28;20435;-50
2023/10/02 13:53:57;;;;;;;0.20;0.20;;;;;;;;;;5110794;28;20138;-50
2023/10/02 13:56:25;;;;;;;0.20;0.20;;;;;;;;;;5111085;28;20043;-51
2023/10/02 13:58:52;;;;;;;0.20;0.20;;;;;;;;;;5110391;28;20124;-50
2023/10/02 14:01:19;;;;;;;0.10;0.10;;;;;;;;;;5110415;28;20082;-51
2023/10/02 14:03:45;;;;;;;0.38;0.25;;;;;;;;;;5110189;28;20048;-51
2023/10/02 14:06:12;;;;;;;0.10;0.10;;;;;;;;;;5110766;28;20067;-50
2023/10/02 14:08:39;;;;;;;0.10;0.10;;;;;;;;;;5110152;28;20488;-51
2023/10/02 14:11:05;;;;;;;0.10;0.10;;;;;;;;;;5110511;28;20142;-49
2023/10/02 14:13:31;;;;;;;0.10;0.10;;;;;;;;;;5110231;28;20054;-50
2023/10/02 14:16:12;;;;;;;0.10;0.10;;;;;;;;;;5119843;28;20127;-51
2023/10/02 14:18:38;;;;;;;0.10;0.10;;;;;;;;;;5130229;27;20127;-49
2023/10/02 14:21:05;;;;;;;0.10;0.10;;;;;;;;;;5130526;28;20047;-51
2023/10/02 14:23:31;;;;;;;0.10;0.10;;;;;;;;;;5129434;28;20059;-50
2023/10/02 14:25:59;;;;;;;0.10;0.10;;;;;;;;;;5129786;27;20047;-51
2023/10/02 14:28:25;;;;;;;0.10;0.10;;;;;;;;;;5130640;28;20152;-51
2023/10/02 14:30:51;;;;;;;0.10;0.10;;;;;;;;;;5130777;28;20051;-51
2023/10/02 14:33:17;;;;;;;0.10;0.10;;;;;;;;;;5130741;28;20397;-51
2023/10/02 14:35:43;;;;;;;0.10;0.10;;;;;;;;;;5130852;28;20054;-51
2023/10/02 14:38:21;;;;;;;0.10;0.10;;;;;;;;;;5130261;28;20129;-51
2023/10/02 14:40:47;;;;;;;0.10;0.10;;;;;;;;;;5118278;28;20048;-51
2023/10/02 14:43:12;;;;;;;0.10;0.10;;;;;;;;;;5109328;28;20133;-50
2023/10/02 14:45:39;;;;;;;0.10;0.10;;;;;;;;;;5109613;28;20051;-51
2023/10/02 14:48:05;;;;;;;0.10;0.10;;;;;;;;;;5114610;28;20047;-51
2023/10/02 14:50:34;;;;;;;0.10;0.10;;;;;;;;;;5130488;28;20409;-51
2023/10/02 14:52:59;;;;;;;0.10;0.10;;;;;;;;;;5130102;28;20096;-51
2023/10/02 14:55:27;;;;;;;0.10;0.10;;;;;;;;;;5130615;28;20081;-49
2023/10/02 14:57:53;;;;;;;0.10;0.10;;;;;;;;;;5129809;28;20043;-51
2023/10/02 15:00:22;;;;;;;0.10;0.10;;;;;;;;;;5130057;28;20459;-51
2023/10/02 15:02:50;;;;;;;0.10;0.10;;;;;;;;;;5129782;27;20054;-51
2023/10/02 15:05:16;;;;;;;;;;;;;;;;;;5130149;28;20054;-51
2023/10/02 15:07:43;;;;;;;0.10;0.10;;;;;;;;;;5129702;28;19959;-51
2023/10/02 15:10:10;;;;;;;0.10;0.10;;;;;;;;;;5129786;28;20402;-51
2023/10/02 15:12:36;;;;;;;0.10;0.10;;;;;;;;;;5129819;28;20035;-51
2023/10/02 15:15:02;;;;;;;0.10;0.10;;;;;;;;;;5130052;27;20585;-51
2023/10/02 15:17:27;;;;;;;0.10;0.10;;;;;;;;;;5133159;28;20159;-50
2023/10/02 15:19:53;;;;;;;0.10;0.10;;;;;;;;;;5133578;28;20043;-51
2023/10/02 15:22:18;;;;;;;0.10;0.10;;;;;;;;;;5133198;28;20051;-50
2023/10/02 15:24:44;;;;;;;0.10;0.10;;;;;;;;;;5133866;28;20043;-50
2023/10/02 15:27:09;;;;;;;0.10;0.10;;;;;;;;;;5132655;28;20479;-51
2023/10/02 15:29:35;;;;;;;0.10;0.10;;;;;;;;;;5115086;28;20048;-51
2023/10/02 15:32:01;;;;;;;0.10;0.10;;;;;;;;;;5112755;28;20066;-49
2023/10/02 15:34:26;;;;;;;0.10;0.10;;;;;;;;;;5112161;28;20054;-51
2023/10/02 15:36:52;;;;;;;0.10;0.10;;;;;;;;;;5112855;28;20043;-50
2023/10/02 15:39:18;;;;;;;0.10;0.10;;;;;;;;;;5112220;28;20047;-50
2023/10/02 15:41:44;;;;;;;0.10;0.10;;;;;;;;;;5111811;27;20051;-51